sensor_id;sensor_type;location;lat;lon;timestamp;temperature;humidity
8945;DHT22;4507;40.232;29.132;2022-08-19T00:00:22;24.00;82.30
8945;DHT22;4507;40.232;29.132;2022-08-19T00:02:52;23.90;82.50
8945;DHT22;4507;40.232;29.132;2022-08-19T00:05:22;23.90;82.80
8945;DHT22;4507;40.232;29.132;2022-08-19T00:07:51;23.90;82.80
8945;DHT22;4507;40.232;29.132;2022-08-19T00:10:20;23.80;82.60
8945;DHT22;4507;40.232;29.132;2022-08-19T00:12:49;23.80;83.60
8945;DHT22;4507;40.232;29.132;2022-08-19T00:15:20;23.80;83.20
8945;DHT22;4507;40.232;29.132;2022-08-19T00:17:50;23.70;83.40
8945;DHT22;4507;40.232;29.132;2022-08-19T00:20:22;23.70;83.60
8945;DHT22;4507;40.232;29.132;2022-08-19T00:22:51;23.70;83.80
8945;DHT22;4507;40.232;29.132;2022-08-19T00:25:20;23.70;84.00
8945;DHT22;4507;40.232;29.132;2022-08-19T00:27:57;23.60;84.10
8945;DHT22;4507;40.232;29.132;2022-08-19T00:30:26;23.60;84.20
8945;DHT22;4507;40.232;29.132;2022-08-19T00:32:56;23.60;84.40
8945;DHT22;4507;40.232;29.132;2022-08-19T00:35:26;23.50;84.50
8945;DHT22;4507;40.232;29.132;2022-08-19T00:37:55;23.50;84.60
8945;DHT22;4507;40.232;29.132;2022-08-19T00:40:25;23.50;84.80
8945;DHT22;4507;40.232;29.132;2022-08-19T00:42:54;23.50;85.00
8945;DHT22;4507;40.232;29.132;2022-08-19T00:45:25;23.50;85.00
8945;DHT22;4507;40.232;29.132;2022-08-19T00:48:13;23.40;85.10
8945;DHT22;4507;40.232;29.132;2022-08-19T00:50:46;23.40;85.30
8945;DHT22;4507;40.232;29.132;2022-08-19T00:53:21;23.40;85.70
8945;DHT22;4507;40.232;29.132;2022-08-19T00:55:54;23.40;86.00
8945;DHT22;4507;40.232;29.132;2022-08-19T00:58:28;23.40;86.20
8945;DHT22;4507;40.232;29.132;2022-08-19T01:00:57;23.40;87.00
8945;DHT22;4507;40.232;29.132;2022-08-19T01:03:26;23.40;86.20
8945;DHT22;4507;40.232;29.132;2022-08-19T01:06:17;23.30;86.20
8945;DHT22;4507;40.232;29.132;2022-08-19T01:08:47;23.30;86.40
8945;DHT22;4507;40.232;29.132;2022-08-19T01:11:16;23.30;86.20
8945;DHT22;4507;40.232;29.132;2022-08-19T01:13:46;23.30;86.30
8945;DHT22;4507;40.232;29.132;2022-08-19T01:16:18;23.30;86.70
8945;DHT22;4507;40.232;29.132;2022-08-19T01:18:48;23.30;86.90
8945;DHT22;4507;40.232;29.132;2022-08-19T01:21:25;23.30;87.00
8945;DHT22;4507;40.232;29.132;2022-08-19T01:23:58;23.30;87.00
8945;DHT22;4507;40.232;29.132;2022-08-19T01:26:27;23.30;87.00
8945;DHT22;4507;40.232;29.132;2022-08-19T01:28:59;23.30;87.00
8945;DHT22;4507;40.232;29.132;2022-08-19T01:31:31;23.30;87.10
8945;DHT22;4507;40.232;29.132;2022-08-19T01:34:01;23.30;87.10
8945;DHT22;4507;40.232;29.132;2022-08-19T01:36:48;23.30;87.30
8945;DHT22;4507;40.232;29.132;2022-08-19T01:39:22;23.40;87.50
8945;DHT22;4507;40.232;29.132;2022-08-19T01:41:52;23.40;87.50
8945;DHT22;4507;40.232;29.132;2022-08-19T01:44:22;23.30;87.20
8945;DHT22;4507;40.232;29.132;2022-08-19T01:46:52;23.30;87.10
8945;DHT22;4507;40.232;29.132;2022-08-19T01:49:21;23.30;87.20
8945;DHT22;4507;40.232;29.132;2022-08-19T01:51:51;23.20;87.20
8945;DHT22;4507;40.232;29.132;2022-08-19T01:54:22;23.20;87.40
8945;DHT22;4507;40.232;29.132;2022-08-19T01:56:55;23.10;87.50
8945;DHT22;4507;40.232;29.132;2022-08-19T01:59:26;23.10;87.90
8945;DHT22;4507;40.232;29.132;2022-08-19T02:01:54;23.00;88.20
8945;DHT22;4507;40.232;29.132;2022-08-19T02:04:23;22.90;88.40
8945;DHT22;4507;40.232;29.132;2022-08-19T02:06:52;22.90;88.80
8945;DHT22;4507;40.232;29.132;2022-08-19T02:09:22;22.80;88.90
8945;DHT22;4507;40.232;29.132;2022-08-19T02:11:51;22.80;89.20
8945;DHT22;4507;40.232;29.132;2022-08-19T02:14:20;22.80;89.50
8945;DHT22;4507;40.232;29.132;2022-08-19T02:16:49;22.80;89.90
8945;DHT22;4507;40.232;29.132;2022-08-19T02:19:17;22.80;90.00
8945;DHT22;4507;40.232;29.132;2022-08-19T02:21:46;22.80;90.10
8945;DHT22;4507;40.232;29.132;2022-08-19T02:24:14;22.80;90.20
8945;DHT22;4507;40.232;29.132;2022-08-19T02:26:44;22.80;90.30
8945;DHT22;4507;40.232;29.132;2022-08-19T02:29:13;22.80;90.30
8945;DHT22;4507;40.232;29.132;2022-08-19T02:31:42;22.70;90.30
8945;DHT22;4507;40.232;29.132;2022-08-19T02:34:12;22.70;90.30
8945;DHT22;4507;40.232;29.132;2022-08-19T02:36:59;22.60;90.20
8945;DHT22;4507;40.232;29.132;2022-08-19T02:39:30;22.60;90.30
8945;DHT22;4507;40.232;29.132;2022-08-19T02:41:59;22.50;90.40
8945;DHT22;4507;40.232;29.132;2022-08-19T02:44:48;22.50;90.50
8945;DHT22;4507;40.232;29.132;2022-08-19T02:47:18;22.50;90.60
8945;DHT22;4507;40.232;29.132;2022-08-19T02:50:06;22.40;90.60
8945;DHT22;4507;40.232;29.132;2022-08-19T02:52:36;22.40;90.70
8945;DHT22;4507;40.232;29.132;2022-08-19T02:55:06;22.40;90.80
8945;DHT22;4507;40.232;29.132;2022-08-19T02:57:37;22.40;90.90
8945;DHT22;4507;40.232;29.132;2022-08-19T03:00:07;22.40;91.00
8945;DHT22;4507;40.232;29.132;2022-08-19T03:02:39;22.40;91.10
8945;DHT22;4507;40.232;29.132;2022-08-19T03:05:09;22.40;91.20
8945;DHT22;4507;40.232;29.132;2022-08-19T03:07:40;22.40;91.10
8945;DHT22;4507;40.232;29.132;2022-08-19T03:10:09;22.40;91.10
8945;DHT22;4507;40.232;29.132;2022-08-19T03:12:40;22.40;91.20
8945;DHT22;4507;40.232;29.132;2022-08-19T03:15:09;22.40;91.20
8945;DHT22;4507;40.232;29.132;2022-08-19T03:17:38;22.30;91.20
8945;DHT22;4507;40.232;29.132;2022-08-19T03:20:25;22.20;91.30
8945;DHT22;4507;40.232;29.132;2022-08-19T03:22:54;22.20;91.40
8945;DHT22;4507;40.232;29.132;2022-08-19T03:25:23;22.20;91.60
8945;DHT22;4507;40.232;29.132;2022-08-19T03:27:54;22.10;91.70
8945;DHT22;4507;40.232;29.132;2022-08-19T03:30:23;22.00;91.70
8945;DHT22;4507;40.232;29.132;2022-08-19T03:32:52;22.00;91.80
8945;DHT22;4507;40.232;29.132;2022-08-19T03:35:23;22.00;91.90
8945;DHT22;4507;40.232;29.132;2022-08-19T03:37:51;22.00;92.00
8945;DHT22;4507;40.232;29.132;2022-08-19T03:40:20;21.90;92.00
8945;DHT22;4507;40.232;29.132;2022-08-19T03:42:49;21.90;92.20
8945;DHT22;4507;40.232;29.132;2022-08-19T03:45:19;21.90;92.30
8945;DHT22;4507;40.232;29.132;2022-08-19T03:47:48;21.90;92.40
8945;DHT22;4507;40.232;29.132;2022-08-19T03:50:16;21.90;92.40
8945;DHT22;4507;40.232;29.132;2022-08-19T03:52:47;21.90;92.50
8945;DHT22;4507;40.232;29.132;2022-08-19T03:55:17;21.90;92.50
8945;DHT22;4507;40.232;29.132;2022-08-19T03:57:46;21.90;92.50
8945;DHT22;4507;40.232;29.132;2022-08-19T04:00:15;21.90;92.50
8945;DHT22;4507;40.232;29.132;2022-08-19T04:02:46;22.00;92.60
8945;DHT22;4507;40.232;29.132;2022-08-19T04:05:26;22.00;92.50
8945;DHT22;4507;40.232;29.132;2022-08-19T04:07:55;22.00;92.50
8945;DHT22;4507;40.232;29.132;2022-08-19T04:10:26;22.00;92.50
8945;DHT22;4507;40.232;29.132;2022-08-19T04:12:55;22.10;92.60
8945;DHT22;4507;40.232;29.132;2022-08-19T04:15:43;22.10;92.50
8945;DHT22;4507;40.232;29.132;2022-08-19T04:18:15;22.20;92.50
8945;DHT22;4507;40.232;29.132;2022-08-19T04:20:44;22.20;92.40
8945;DHT22;4507;40.232;29.132;2022-08-19T04:23:13;22.30;92.40
8945;DHT22;4507;40.232;29.132;2022-08-19T04:25:42;22.40;92.40
8945;DHT22;4507;40.232;29.132;2022-08-19T04:28:12;22.40;92.20
8945;DHT22;4507;40.232;29.132;2022-08-19T04:30:42;22.50;92.20
8945;DHT22;4507;40.232;29.132;2022-08-19T04:33:12;22.50;92.20
8945;DHT22;4507;40.232;29.132;2022-08-19T04:36:04;22.60;92.10
8945;DHT22;4507;40.232;29.132;2022-08-19T04:38:33;22.70;92.00
8945;DHT22;4507;40.232;29.132;2022-08-19T04:41:03;22.70;91.90
8945;DHT22;4507;40.232;29.132;2022-08-19T04:43:49;22.80;91.80
8945;DHT22;4507;40.232;29.132;2022-08-19T04:46:18;22.90;91.80
8945;DHT22;4507;40.232;29.132;2022-08-19T04:49:07;22.90;91.70
8945;DHT22;4507;40.232;29.132;2022-08-19T04:51:43;23.40;91.80
8945;DHT22;4507;40.232;29.132;2022-08-19T04:54:14;23.00;91.60
8945;DHT22;4507;40.232;29.132;2022-08-19T04:57:03;23.10;91.60
8945;DHT22;4507;40.232;29.132;2022-08-19T04:59:34;23.20;91.60
8945;DHT22;4507;40.232;29.132;2022-08-19T05:02:04;23.20;91.50
8945;DHT22;4507;40.232;29.132;2022-08-19T05:04:33;23.30;91.50
8945;DHT22;4507;40.232;29.132;2022-08-19T05:07:04;23.30;91.30
8945;DHT22;4507;40.232;29.132;2022-08-19T05:09:34;23.40;91.20
8945;DHT22;4507;40.232;29.132;2022-08-19T05:12:23;23.50;91.10
8945;DHT22;4507;40.232;29.132;2022-08-19T05:14:56;23.50;90.90
8945;DHT22;4507;40.232;29.132;2022-08-19T05:17:26;23.60;90.70
8945;DHT22;4507;40.232;29.132;2022-08-19T05:20:04;23.70;90.50
8945;DHT22;4507;40.232;29.132;2022-08-19T05:22:52;23.80;90.30
8945;DHT22;4507;40.232;29.132;2022-08-19T05:25:22;23.80;90.10
8945;DHT22;4507;40.232;29.132;2022-08-19T05:27:52;23.90;90.10
8945;DHT22;4507;40.232;29.132;2022-08-19T05:30:21;24.00;90.00
8945;DHT22;4507;40.232;29.132;2022-08-19T05:33:11;24.00;89.90
8945;DHT22;4507;40.232;29.132;2022-08-19T05:35:40;24.10;89.70
8945;DHT22;4507;40.232;29.132;2022-08-19T05:38:11;24.20;89.60
8945;DHT22;4507;40.232;29.132;2022-08-19T05:40:40;24.30;89.60
8945;DHT22;4507;40.232;29.132;2022-08-19T05:43:09;24.40;89.50
8945;DHT22;4507;40.232;29.132;2022-08-19T05:45:39;24.40;89.30
8945;DHT22;4507;40.232;29.132;2022-08-19T05:48:10;24.50;89.20
8945;DHT22;4507;40.232;29.132;2022-08-19T05:50:41;24.60;89.10
8945;DHT22;4507;40.232;29.132;2022-08-19T05:53:13;24.70;89.10
8945;DHT22;4507;40.232;29.132;2022-08-19T05:55:43;24.80;89.10
8945;DHT22;4507;40.232;29.132;2022-08-19T05:58:12;24.90;89.10
8945;DHT22;4507;40.232;29.132;2022-08-19T06:00:43;24.90;89.00
8945;DHT22;4507;40.232;29.132;2022-08-19T06:03:12;25.00;88.90
8945;DHT22;4507;40.232;29.132;2022-08-19T06:05:42;25.20;89.10
8945;DHT22;4507;40.232;29.132;2022-08-19T06:08:38;25.20;89.00
8945;DHT22;4507;40.232;29.132;2022-08-19T06:11:16;25.30;89.10
8945;DHT22;4507;40.232;29.132;2022-08-19T06:13:46;25.40;89.10
8945;DHT22;4507;40.232;29.132;2022-08-19T06:16:26;25.50;89.20
8945;DHT22;4507;40.232;29.132;2022-08-19T06:18:56;25.60;89.20
8945;DHT22;4507;40.232;29.132;2022-08-19T06:21:27;25.70;89.90
8945;DHT22;4507;40.232;29.132;2022-08-19T06:23:58;25.80;89.80
8945;DHT22;4507;40.232;29.132;2022-08-19T06:26:27;25.90;89.10
8945;DHT22;4507;40.232;29.132;2022-08-19T06:28:57;26.00;89.00
8945;DHT22;4507;40.232;29.132;2022-08-19T06:31:27;26.10;88.90
8945;DHT22;4507;40.232;29.132;2022-08-19T06:34:17;26.10;88.70
8945;DHT22;4507;40.232;29.132;2022-08-19T06:36:48;26.20;88.50
8945;DHT22;4507;40.232;29.132;2022-08-19T06:39:21;26.30;89.10
8945;DHT22;4507;40.232;29.132;2022-08-19T06:41:54;26.30;88.10
8945;DHT22;4507;40.232;29.132;2022-08-19T06:44:31;26.40;87.80
8945;DHT22;4507;40.232;29.132;2022-08-19T06:47:11;26.50;87.50
8945;DHT22;4507;40.232;29.132;2022-08-19T06:50:10;26.60;86.80
8945;DHT22;4507;40.232;29.132;2022-08-19T06:52:39;26.70;86.50
8945;DHT22;4507;40.232;29.132;2022-08-19T06:55:10;26.70;86.10
8945;DHT22;4507;40.232;29.132;2022-08-19T06:57:39;26.80;85.20
8945;DHT22;4507;40.232;29.132;2022-08-19T07:00:10;26.90;85.80
8945;DHT22;4507;40.232;29.132;2022-08-19T07:03:00;27.00;84.90
8945;DHT22;4507;40.232;29.132;2022-08-19T07:05:39;27.10;84.40
8945;DHT22;4507;40.232;29.132;2022-08-19T07:08:12;27.20;83.00
8945;DHT22;4507;40.232;29.132;2022-08-19T07:10:46;27.30;82.20
8945;DHT22;4507;40.232;29.132;2022-08-19T07:13:16;27.40;80.90
8945;DHT22;4507;40.232;29.132;2022-08-19T07:15:46;27.50;80.60
8945;DHT22;4507;40.232;29.132;2022-08-19T07:18:18;27.60;79.40
8945;DHT22;4507;40.232;29.132;2022-08-19T07:20:48;27.70;79.00
8945;DHT22;4507;40.232;29.132;2022-08-19T07:23:17;27.80;78.30
8945;DHT22;4507;40.232;29.132;2022-08-19T07:25:51;27.90;77.30
8945;DHT22;4507;40.232;29.132;2022-08-19T07:28:20;28.00;76.70
8945;DHT22;4507;40.232;29.132;2022-08-19T07:30:51;28.10;76.70
8945;DHT22;4507;40.232;29.132;2022-08-19T07:33:21;28.20;75.80
8945;DHT22;4507;40.232;29.132;2022-08-19T07:35:54;28.30;74.80
8945;DHT22;4507;40.232;29.132;2022-08-19T07:38:23;28.40;73.20
8945;DHT22;4507;40.232;29.132;2022-08-19T07:40:54;28.50;72.60
8945;DHT22;4507;40.232;29.132;2022-08-19T07:43:24;28.70;72.20
8945;DHT22;4507;40.232;29.132;2022-08-19T07:46:01;28.80;70.70
8945;DHT22;4507;40.232;29.132;2022-08-19T07:48:31;29.00;69.60
8945;DHT22;4507;40.232;29.132;2022-08-19T07:51:04;29.10;68.10
8945;DHT22;4507;40.232;29.132;2022-08-19T07:53:35;29.30;68.00
8945;DHT22;4507;40.232;29.132;2022-08-19T07:56:07;29.50;67.90
8945;DHT22;4507;40.232;29.132;2022-08-19T07:58:40;29.70;67.40
8945;DHT22;4507;40.232;29.132;2022-08-19T08:01:11;29.80;66.90
8945;DHT22;4507;40.232;29.132;2022-08-19T08:03:42;30.00;65.90
8945;DHT22;4507;40.232;29.132;2022-08-19T08:06:28;30.10;66.10
8945;DHT22;4507;40.232;29.132;2022-08-19T08:09:16;30.30;64.70
8945;DHT22;4507;40.232;29.132;2022-08-19T08:11:59;30.50;62.90
8945;DHT22;4507;40.232;29.132;2022-08-19T08:14:46;30.60;60.50
8945;DHT22;4507;40.232;29.132;2022-08-19T08:17:23;30.60;60.00
8945;DHT22;4507;40.232;29.132;2022-08-19T08:20:13;30.70;59.70
8945;DHT22;4507;40.232;29.132;2022-08-19T08:22:43;30.70;58.90
8945;DHT22;4507;40.232;29.132;2022-08-19T08:25:30;30.70;58.30
8945;DHT22;4507;40.232;29.132;2022-08-19T08:28:03;30.70;58.20
8945;DHT22;4507;40.232;29.132;2022-08-19T08:30:33;30.70;58.40
8945;DHT22;4507;40.232;29.132;2022-08-19T08:33:04;30.70;57.50
8945;DHT22;4507;40.232;29.132;2022-08-19T08:35:33;30.90;57.20
8945;DHT22;4507;40.232;29.132;2022-08-19T08:38:03;31.00;56.90
8945;DHT22;4507;40.232;29.132;2022-08-19T08:40:39;31.00;56.90
8945;DHT22;4507;40.232;29.132;2022-08-19T08:43:21;31.20;57.20
8945;DHT22;4507;40.232;29.132;2022-08-19T08:45:55;31.30;57.30
8945;DHT22;4507;40.232;29.132;2022-08-19T08:48:32;31.40;56.70
8945;DHT22;4507;40.232;29.132;2022-08-19T08:51:05;31.50;56.20
8945;DHT22;4507;40.232;29.132;2022-08-19T08:53:56;31.40;55.70
8945;DHT22;4507;40.232;29.132;2022-08-19T08:56:25;31.40;56.20
8945;DHT22;4507;40.232;29.132;2022-08-19T08:59:04;31.50;56.40
8945;DHT22;4507;40.232;29.132;2022-08-19T09:01:35;31.60;56.20
8945;DHT22;4507;40.232;29.132;2022-08-19T09:04:06;31.60;55.30
8945;DHT22;4507;40.232;29.132;2022-08-19T09:06:40;31.70;54.90
8945;DHT22;4507;40.232;29.132;2022-08-19T09:09:20;31.80;54.50
8945;DHT22;4507;40.232;29.132;2022-08-19T09:12:00;32.00;54.00
8945;DHT22;4507;40.232;29.132;2022-08-19T09:14:37;32.10;53.30
8945;DHT22;4507;40.232;29.132;2022-08-19T09:17:20;32.20;52.50
8945;DHT22;4507;40.232;29.132;2022-08-19T09:19:57;32.40;52.40
8945;DHT22;4507;40.232;29.132;2022-08-19T09:22:28;32.50;52.10
8945;DHT22;4507;40.232;29.132;2022-08-19T09:24:57;32.60;52.00
8945;DHT22;4507;40.232;29.132;2022-08-19T09:27:26;32.70;51.60
8945;DHT22;4507;40.232;29.132;2022-08-19T09:30:19;32.80;51.20
8945;DHT22;4507;40.232;29.132;2022-08-19T09:32:50;32.90;51.00
8945;DHT22;4507;40.232;29.132;2022-08-19T09:35:39;32.90;50.40
8945;DHT22;4507;40.232;29.132;2022-08-19T09:38:20;32.90;50.50
8945;DHT22;4507;40.232;29.132;2022-08-19T09:40:49;33.00;49.80
8945;DHT22;4507;40.232;29.132;2022-08-19T09:43:18;33.00;50.00
8945;DHT22;4507;40.232;29.132;2022-08-19T09:46:09;33.00;50.00
8945;DHT22;4507;40.232;29.132;2022-08-19T09:48:41;33.00;50.20
8945;DHT22;4507;40.232;29.132;2022-08-19T09:51:14;32.90;50.10
8945;DHT22;4507;40.232;29.132;2022-08-19T09:53:44;32.80;49.80
8945;DHT22;4507;40.232;29.132;2022-08-19T09:56:14;32.80;50.50
8945;DHT22;4507;40.232;29.132;2022-08-19T09:58:46;32.90;50.40
8945;DHT22;4507;40.232;29.132;2022-08-19T10:01:35;32.90;50.40
8945;DHT22;4507;40.232;29.132;2022-08-19T10:04:04;33.10;50.50
8945;DHT22;4507;40.232;29.132;2022-08-19T10:06:47;33.30;50.50
8945;DHT22;4507;40.232;29.132;2022-08-19T10:09:20;33.50;50.40
8945;DHT22;4507;40.232;29.132;2022-08-19T10:12:00;33.70;49.50
8945;DHT22;4507;40.232;29.132;2022-08-19T10:14:30;33.80;49.30
8945;DHT22;4507;40.232;29.132;2022-08-19T10:17:02;33.80;49.30
8945;DHT22;4507;40.232;29.132;2022-08-19T10:20:07;34.00;49.20
8945;DHT22;4507;40.232;29.132;2022-08-19T10:22:37;34.00;48.40
8945;DHT22;4507;40.232;29.132;2022-08-19T10:25:07;34.00;48.50
8945;DHT22;4507;40.232;29.132;2022-08-19T10:27:36;34.10;48.30
8945;DHT22;4507;40.232;29.132;2022-08-19T10:30:07;34.10;48.40
8945;DHT22;4507;40.232;29.132;2022-08-19T10:32:41;34.10;48.30
8945;DHT22;4507;40.232;29.132;2022-08-19T10:35:13;34.10;48.10
8945;DHT22;4507;40.232;29.132;2022-08-19T10:37:48;34.00;47.70
8945;DHT22;4507;40.232;29.132;2022-08-19T10:40:28;33.80;47.50
8945;DHT22;4507;40.232;29.132;2022-08-19T10:42:57;33.70;47.70
8945;DHT22;4507;40.232;29.132;2022-08-19T10:45:26;33.50;48.10
8945;DHT22;4507;40.232;29.132;2022-08-19T10:47:57;33.40;48.70
8945;DHT22;4507;40.232;29.132;2022-08-19T10:50:26;33.30;48.80
8945;DHT22;4507;40.232;29.132;2022-08-19T10:53:13;33.30;48.80
8945;DHT22;4507;40.232;29.132;2022-08-19T10:55:45;33.30;48.90
8945;DHT22;4507;40.232;29.132;2022-08-19T10:58:31;33.30;48.80
8945;DHT22;4507;40.232;29.132;2022-08-19T11:01:00;33.20;48.60
8945;DHT22;4507;40.232;29.132;2022-08-19T11:03:31;33.20;48.70
8945;DHT22;4507;40.232;29.132;2022-08-19T11:06:19;33.10;49.20
8945;DHT22;4507;40.232;29.132;2022-08-19T11:08:48;33.40;49.50
8945;DHT22;4507;40.232;29.132;2022-08-19T11:11:17;33.60;49.00
8945;DHT22;4507;40.232;29.132;2022-08-19T11:13:46;33.60;48.70
8945;DHT22;4507;40.232;29.132;2022-08-19T11:16:18;33.50;48.60
8945;DHT22;4507;40.232;29.132;2022-08-19T11:18:52;33.20;48.30
8945;DHT22;4507;40.232;29.132;2022-08-19T11:21:24;33.00;48.20
8945;DHT22;4507;40.232;29.132;2022-08-19T11:23:55;32.90;48.70
8945;DHT22;4507;40.232;29.132;2022-08-19T11:26:25;32.90;49.10
8945;DHT22;4507;40.232;29.132;2022-08-19T11:28:54;33.30;49.10
8945;DHT22;4507;40.232;29.132;2022-08-19T11:31:26;33.70;48.40
8945;DHT22;4507;40.232;29.132;2022-08-19T11:34:19;34.30;47.80
8945;DHT22;4507;40.232;29.132;2022-08-19T11:36:49;34.90;47.50
8945;DHT22;4507;40.232;29.132;2022-08-19T11:39:37;35.30;46.30
8945;DHT22;4507;40.232;29.132;2022-08-19T11:42:09;35.50;45.70
8945;DHT22;4507;40.232;29.132;2022-08-19T11:44:56;35.30;45.70
8945;DHT22;4507;40.232;29.132;2022-08-19T11:47:25;35.30;45.80
8945;DHT22;4507;40.232;29.132;2022-08-19T11:49:56;35.50;45.60
8945;DHT22;4507;40.232;29.132;2022-08-19T11:52:25;35.80;45.50
8945;DHT22;4507;40.232;29.132;2022-08-19T11:54:55;36.00;44.90
8945;DHT22;4507;40.232;29.132;2022-08-19T11:57:24;36.10;44.50
8945;DHT22;4507;40.232;29.132;2022-08-19T11:59:53;36.20;44.30
8945;DHT22;4507;40.232;29.132;2022-08-19T12:05:49;36.40;44.30
8945;DHT22;4507;40.232;29.132;2022-08-19T12:08:19;36.40;43.90
8945;DHT22;4507;40.232;29.132;2022-08-19T12:10:49;36.40;43.70
8945;DHT22;4507;40.232;29.132;2022-08-19T12:13:18;36.40;44.00
8945;DHT22;4507;40.232;29.132;2022-08-19T12:15:47;36.40;44.10
8945;DHT22;4507;40.232;29.132;2022-08-19T12:18:17;36.40;44.40
8945;DHT22;4507;40.232;29.132;2022-08-19T12:20:46;36.40;44.40
8945;DHT22;4507;40.232;29.132;2022-08-19T12:23:16;36.50;44.20
8945;DHT22;4507;40.232;29.132;2022-08-19T12:25:47;36.60;44.40
8945;DHT22;4507;40.232;29.132;2022-08-19T12:28:20;36.70;44.10
8945;DHT22;4507;40.232;29.132;2022-08-19T12:30:50;36.80;43.70
8945;DHT22;4507;40.232;29.132;2022-08-19T12:33:19;36.80;43.30
8945;DHT22;4507;40.232;29.132;2022-08-19T12:36:12;36.90;43.50
8945;DHT22;4507;40.232;29.132;2022-08-19T12:38:44;37.00;43.30
8945;DHT22;4507;40.232;29.132;2022-08-19T12:41:15;37.00;43.10
8945;DHT22;4507;40.232;29.132;2022-08-19T12:43:46;37.00;43.00
8945;DHT22;4507;40.232;29.132;2022-08-19T12:46:19;37.00;42.90
8945;DHT22;4507;40.232;29.132;2022-08-19T12:48:52;37.00;42.80
8945;DHT22;4507;40.232;29.132;2022-08-19T12:51:22;37.00;42.90
8945;DHT22;4507;40.232;29.132;2022-08-19T12:53:54;37.00;42.80
8945;DHT22;4507;40.232;29.132;2022-08-19T12:56:23;37.00;42.80
8945;DHT22;4507;40.232;29.132;2022-08-19T12:58:51;37.10;42.80
8945;DHT22;4507;40.232;29.132;2022-08-19T13:01:21;37.20;42.80
8945;DHT22;4507;40.232;29.132;2022-08-19T13:03:50;37.40;42.80
8945;DHT22;4507;40.232;29.132;2022-08-19T13:06:20;37.40;42.40
8945;DHT22;4507;40.232;29.132;2022-08-19T13:08:50;37.60;42.40
8945;DHT22;4507;40.232;29.132;2022-08-19T13:11:27;37.60;41.80
8945;DHT22;4507;40.232;29.132;2022-08-19T13:14:00;37.60;41.50
8945;DHT22;4507;40.232;29.132;2022-08-19T13:16:30;37.60;41.40
8945;DHT22;4507;40.232;29.132;2022-08-19T13:19:00;37.50;41.20
8945;DHT22;4507;40.232;29.132;2022-08-19T13:21:31;37.40;41.00
8945;DHT22;4507;40.232;29.132;2022-08-19T13:24:00;37.40;41.20
8945;DHT22;4507;40.232;29.132;2022-08-19T13:26:31;37.30;41.40
8945;DHT22;4507;40.232;29.132;2022-08-19T13:29:00;37.20;41.80
8945;DHT22;4507;40.232;29.132;2022-08-19T13:31:46;36.90;42.10
8945;DHT22;4507;40.232;29.132;2022-08-19T13:34:34;36.70;42.40
8945;DHT22;4507;40.232;29.132;2022-08-19T13:37:04;36.30;43.00
8945;DHT22;4507;40.232;29.132;2022-08-19T13:39:34;36.00;43.70
8945;DHT22;4507;40.232;29.132;2022-08-19T13:42:05;35.70;43.30
8945;DHT22;4507;40.232;29.132;2022-08-19T13:44:35;35.40;44.00
8945;DHT22;4507;40.232;29.132;2022-08-19T13:47:06;35.10;44.60
8945;DHT22;4507;40.232;29.132;2022-08-19T13:49:54;34.90;45.30
8945;DHT22;4507;40.232;29.132;2022-08-19T13:52:23;34.60;45.70
8945;DHT22;4507;40.232;29.132;2022-08-19T13:54:52;34.40;46.20
8945;DHT22;4507;40.232;29.132;2022-08-19T13:57:22;34.30;46.70
8945;DHT22;4507;40.232;29.132;2022-08-19T13:59:51;34.10;47.30
8945;DHT22;4507;40.232;29.132;2022-08-19T14:02:20;34.00;47.80
8945;DHT22;4507;40.232;29.132;2022-08-19T14:04:49;33.80;48.10
8945;DHT22;4507;40.232;29.132;2022-08-19T14:07:18;33.70;48.60
8945;DHT22;4507;40.232;29.132;2022-08-19T14:09:49;33.60;48.80
8945;DHT22;4507;40.232;29.132;2022-08-19T14:12:19;33.50;49.00
8945;DHT22;4507;40.232;29.132;2022-08-19T14:15:15;33.40;49.10
8945;DHT22;4507;40.232;29.132;2022-08-19T14:17:45;33.20;49.30
8945;DHT22;4507;40.232;29.132;2022-08-19T14:20:35;33.10;49.50
8945;DHT22;4507;40.232;29.132;2022-08-19T14:23:04;32.90;49.60
8945;DHT22;4507;40.232;29.132;2022-08-19T14:25:33;32.90;50.10
8945;DHT22;4507;40.232;29.132;2022-08-19T14:28:03;32.80;50.20
8945;DHT22;4507;40.232;29.132;2022-08-19T14:30:34;32.60;49.90
8945;DHT22;4507;40.232;29.132;2022-08-19T14:33:05;32.60;50.00
8945;DHT22;4507;40.232;29.132;2022-08-19T14:35:38;32.50;50.20
8945;DHT22;4507;40.232;29.132;2022-08-19T14:38:31;32.40;50.30
8945;DHT22;4507;40.232;29.132;2022-08-19T14:41:08;32.30;50.30
8945;DHT22;4507;40.232;29.132;2022-08-19T14:43:37;32.20;50.40
8945;DHT22;4507;40.232;29.132;2022-08-19T14:46:08;32.20;50.80
8945;DHT22;4507;40.232;29.132;2022-08-19T14:48:38;32.10;50.80
8945;DHT22;4507;40.232;29.132;2022-08-19T14:51:08;32.10;50.80
8945;DHT22;4507;40.232;29.132;2022-08-19T14:53:38;32.00;50.70
8945;DHT22;4507;40.232;29.132;2022-08-19T14:56:08;32.00;50.80
8945;DHT22;4507;40.232;29.132;2022-08-19T14:58:38;32.00;50.90
8945;DHT22;4507;40.232;29.132;2022-08-19T15:01:10;31.90;50.80
8945;DHT22;4507;40.232;29.132;2022-08-19T15:03:44;31.90;50.90
8945;DHT22;4507;40.232;29.132;2022-08-19T15:06:19;31.80;51.00
8945;DHT22;4507;40.232;29.132;2022-08-19T15:08:49;31.90;51.30
8945;DHT22;4507;40.232;29.132;2022-08-19T15:11:31;31.80;51.50
8945;DHT22;4507;40.232;29.132;2022-08-19T15:14:04;31.70;51.30
8945;DHT22;4507;40.232;29.132;2022-08-19T15:16:45;31.70;51.30
8945;DHT22;4507;40.232;29.132;2022-08-19T15:19:14;31.70;51.40
8945;DHT22;4507;40.232;29.132;2022-08-19T15:21:49;31.60;51.60
8945;DHT22;4507;40.232;29.132;2022-08-19T15:24:18;31.60;52.00
8945;DHT22;4507;40.232;29.132;2022-08-19T15:26:47;31.50;52.00
8945;DHT22;4507;40.232;29.132;2022-08-19T15:29:20;31.50;52.20
8945;DHT22;4507;40.232;29.132;2022-08-19T15:31:59;31.40;52.20
8945;DHT22;4507;40.232;29.132;2022-08-19T15:34:47;31.40;52.40
8945;DHT22;4507;40.232;29.132;2022-08-19T15:37:16;31.30;52.40
8945;DHT22;4507;40.232;29.132;2022-08-19T15:39:45;31.30;52.60
8945;DHT22;4507;40.232;29.132;2022-08-19T15:42:14;31.20;52.80
8945;DHT22;4507;40.232;29.132;2022-08-19T15:44:56;31.20;53.10
8945;DHT22;4507;40.232;29.132;2022-08-19T15:47:29;31.10;53.00
8945;DHT22;4507;40.232;29.132;2022-08-19T15:50:05;31.10;53.10
8945;DHT22;4507;40.232;29.132;2022-08-19T15:52:44;31.10;53.30
8945;DHT22;4507;40.232;29.132;2022-08-19T15:55:16;31.00;53.40
8945;DHT22;4507;40.232;29.132;2022-08-19T15:58:19;31.00;53.60
8945;DHT22;4507;40.232;29.132;2022-08-19T16:01:06;30.90;53.60
8945;DHT22;4507;40.232;29.132;2022-08-19T16:03:56;30.80;53.70
8945;DHT22;4507;40.232;29.132;2022-08-19T16:06:46;30.80;53.80
8945;DHT22;4507;40.232;29.132;2022-08-19T16:09:17;30.70;53.90
8945;DHT22;4507;40.232;29.132;2022-08-19T16:11:53;30.60;54.00
8945;DHT22;4507;40.232;29.132;2022-08-19T16:14:28;30.60;54.20
8945;DHT22;4507;40.232;29.132;2022-08-19T16:16:57;30.50;54.50
8945;DHT22;4507;40.232;29.132;2022-08-19T16:19:31;30.50;54.60
8945;DHT22;4507;40.232;29.132;2022-08-19T16:22:00;30.40;54.90
8945;DHT22;4507;40.232;29.132;2022-08-19T16:24:29;30.30;55.00
8945;DHT22;4507;40.232;29.132;2022-08-19T16:27:00;30.20;55.70